sensor_id;sensor_type;location;lat;lon;timestamp;temperature;humidity
32296;DHT22;18781;51.550;5.418;2022-10-16T00:01:19;16.00;70.90
32296;DHT22;18781;51.550;5.418;2022-10-16T00:03:46;16.00;70.80
32296;DHT22;18781;51.550;5.418;2022-10-16T00:06:12;16.00;70.90
32296;DHT22;18781;51.550;5.418;2022-10-16T00:08:39;16.00;70.90
32296;DHT22;18781;51.550;5.418;2022-10-16T00:11:06;16.00;70.90
32296;DHT22;18781;51.550;5.418;2022-10-16T00:13:33;16.00;70.90
32296;DHT22;18781;51.550;5.418;2022-10-16T00:16:01;16.00;71.00
32296;DHT22;18781;51.550;5.418;2022-10-16T00:18:27;16.00;71.00
32296;DHT22;18781;51.550;5.418;2022-10-16T00:20:53;16.00;71.00
32296;DHT22;18781;51.550;5.418;2022-10-16T00:23:20;16.00;71.10
32296;DHT22;18781;51.550;5.418;2022-10-16T00:25:54;16.00;71.10
32296;DHT22;18781;51.550;5.418;2022-10-16T00:28:21;16.00;71.40
32296;DHT22;18781;51.550;5.418;2022-10-16T00:30:47;16.00;71.10
32296;DHT22;18781;51.550;5.418;2022-10-16T00:33:12;16.00;71.10
32296;DHT22;18781;51.550;5.418;2022-10-16T00:35:38;16.00;71.10
32296;DHT22;18781;51.550;5.418;2022-10-16T00:38:03;16.00;71.20
32296;DHT22;18781;51.550;5.418;2022-10-16T00:40:29;15.90;71.10
32296;DHT22;18781;51.550;5.418;2022-10-16T00:42:54;15.90;71.10
32296;DHT22;18781;51.550;5.418;2022-10-16T00:45:20;15.90;71.10
32296;DHT22;18781;51.550;5.418;2022-10-16T00:47:47;15.90;71.20
32296;DHT22;18781;51.550;5.418;2022-10-16T00:50:27;15.90;71.30
32296;DHT22;18781;51.550;5.418;2022-10-16T00:52:54;15.90;71.50
32296;DHT22;18781;51.550;5.418;2022-10-16T00:55:20;15.90;71.30
32296;DHT22;18781;51.550;5.418;2022-10-16T00:57:46;15.90;71.40
32296;DHT22;18781;51.550;5.418;2022-10-16T01:00:17;15.90;71.70
32296;DHT22;18781;51.550;5.418;2022-10-16T01:02:43;15.90;71.50
32296;DHT22;18781;51.550;5.418;2022-10-16T01:05:09;15.80;71.30
32296;DHT22;18781;51.550;5.418;2022-10-16T01:07:46;15.80;71.30
32296;DHT22;18781;51.550;5.418;2022-10-16T01:10:26;15.90;71.40
32296;DHT22;18781;51.550;5.418;2022-10-16T01:13:01;15.80;71.40
32296;DHT22;18781;51.550;5.418;2022-10-16T01:16:05;15.80;71.50
32296;DHT22;18781;51.550;5.418;2022-10-16T01:18:55;15.80;71.90
32296;DHT22;18781;51.550;5.418;2022-10-16T01:21:28;15.80;71.90
32296;DHT22;18781;51.550;5.418;2022-10-16T01:29:08;15.70;71.50
32296;DHT22;18781;51.550;5.418;2022-10-16T01:31:39;15.70;71.50
32296;DHT22;18781;51.550;5.418;2022-10-16T01:34:18;15.70;71.80
32296;DHT22;18781;51.550;5.418;2022-10-16T01:36:52;15.70;72.10
32296;DHT22;18781;51.550;5.418;2022-10-16T01:39:23;15.70;72.10
32296;DHT22;18781;51.550;5.418;2022-10-16T01:41:55;15.70;72.00
32296;DHT22;18781;51.550;5.418;2022-10-16T01:44:26;15.70;72.00
32296;DHT22;18781;51.550;5.418;2022-10-16T01:46:55;15.70;72.10
32296;DHT22;18781;51.550;5.418;2022-10-16T01:49:23;15.70;72.00
32296;DHT22;18781;51.550;5.418;2022-10-16T01:51:54;15.70;72.10
32296;DHT22;18781;51.550;5.418;2022-10-16T01:54:23;15.70;72.20
32296;DHT22;18781;51.550;5.418;2022-10-16T01:56:51;15.70;72.20
32296;DHT22;18781;51.550;5.418;2022-10-16T01:59:20;15.70;72.20
32296;DHT22;18781;51.550;5.418;2022-10-16T02:01:54;15.70;72.30
32296;DHT22;18781;51.550;5.418;2022-10-16T02:04:28;15.70;72.50
32296;DHT22;18781;51.550;5.418;2022-10-16T02:06:54;15.70;72.40
32296;DHT22;18781;51.550;5.418;2022-10-16T02:09:20;15.70;72.30
32296;DHT22;18781;51.550;5.418;2022-10-16T02:11:46;15.70;72.40
32296;DHT22;18781;51.550;5.418;2022-10-16T02:14:14;15.70;72.40
32296;DHT22;18781;51.550;5.418;2022-10-16T02:16:42;15.70;72.40
32296;DHT22;18781;51.550;5.418;2022-10-16T02:19:08;15.70;72.50
32296;DHT22;18781;51.550;5.418;2022-10-16T02:21:56;15.70;72.40
32296;DHT22;18781;51.550;5.418;2022-10-16T02:24:36;15.70;72.70
32296;DHT22;18781;51.550;5.418;2022-10-16T02:29:41;15.70;72.50
32296;DHT22;18781;51.550;5.418;2022-10-16T02:32:12;15.70;72.30
32296;DHT22;18781;51.550;5.418;2022-10-16T02:34:39;15.70;72.30
32296;DHT22;18781;51.550;5.418;2022-10-16T02:37:06;15.70;72.30
32296;DHT22;18781;51.550;5.418;2022-10-16T02:39:33;15.70;72.20
32296;DHT22;18781;51.550;5.418;2022-10-16T02:41:59;15.70;72.30
32296;DHT22;18781;51.550;5.418;2022-10-16T02:44:25;15.70;72.30
32296;DHT22;18781;51.550;5.418;2022-10-16T02:46:50;15.70;72.20
32296;DHT22;18781;51.550;5.418;2022-10-16T02:49:16;15.70;72.30
32296;DHT22;18781;51.550;5.418;2022-10-16T02:51:42;15.70;72.30
32296;DHT22;18781;51.550;5.418;2022-10-16T02:54:08;15.70;72.30
32296;DHT22;18781;51.550;5.418;2022-10-16T02:56:33;15.70;72.90
32296;DHT22;18781;51.550;5.418;2022-10-16T02:58:59;15.70;72.30
32296;DHT22;18781;51.550;5.418;2022-10-16T03:01:25;15.70;72.30
32296;DHT22;18781;51.550;5.418;2022-10-16T03:03:50;15.70;72.40
32296;DHT22;18781;51.550;5.418;2022-10-16T03:06:16;15.70;72.30
32296;DHT22;18781;51.550;5.418;2022-10-16T03:08:42;15.60;72.30
32296;DHT22;18781;51.550;5.418;2022-10-16T03:11:07;15.70;72.40
32296;DHT22;18781;51.550;5.418;2022-10-16T03:13:33;15.60;72.40
32296;DHT22;18781;51.550;5.418;2022-10-16T03:15:58;15.60;72.30
32296;DHT22;18781;51.550;5.418;2022-10-16T03:18:24;15.60;72.40
32296;DHT22;18781;51.550;5.418;2022-10-16T03:20:50;15.60;72.90
32296;DHT22;18781;51.550;5.418;2022-10-16T03:23:15;15.60;72.40
32296;DHT22;18781;51.550;5.418;2022-10-16T03:25:41;15.60;72.40
32296;DHT22;18781;51.550;5.418;2022-10-16T03:28:06;15.60;72.50
32296;DHT22;18781;51.550;5.418;2022-10-16T03:30:32;15.60;72.50
32296;DHT22;18781;51.550;5.418;2022-10-16T03:32:57;15.60;72.50
32296;DHT22;18781;51.550;5.418;2022-10-16T03:35:24;15.60;72.50
32296;DHT22;18781;51.550;5.418;2022-10-16T03:37:50;15.60;72.60
32296;DHT22;18781;51.550;5.418;2022-10-16T03:40:16;15.60;72.60
32296;DHT22;18781;51.550;5.418;2022-10-16T03:42:43;15.60;72.60
32296;DHT22;18781;51.550;5.418;2022-10-16T03:45:09;15.60;72.80
32296;DHT22;18781;51.550;5.418;2022-10-16T03:47:35;15.60;72.80
32296;DHT22;18781;51.550;5.418;2022-10-16T03:50:00;15.60;72.80
32296;DHT22;18781;51.550;5.418;2022-10-16T03:52:26;15.60;72.80
32296;DHT22;18781;51.550;5.418;2022-10-16T03:54:52;15.60;72.90
32296;DHT22;18781;51.550;5.418;2022-10-16T03:57:17;15.60;72.90
32296;DHT22;18781;51.550;5.418;2022-10-16T03:59:43;15.50;72.80
32296;DHT22;18781;51.550;5.418;2022-10-16T04:02:09;15.60;72.90
32296;DHT22;18781;51.550;5.418;2022-10-16T04:04:35;15.60;72.90
32296;DHT22;18781;51.550;5.418;2022-10-16T04:07:01;15.60;73.00
32296;DHT22;18781;51.550;5.418;2022-10-16T04:09:26;15.50;73.00
32296;DHT22;18781;51.550;5.418;2022-10-16T04:11:52;15.50;73.00
32296;DHT22;18781;51.550;5.418;2022-10-16T04:14:18;15.50;73.00
32296;DHT22;18781;51.550;5.418;2022-10-16T04:16:43;15.60;73.10
32296;DHT22;18781;51.550;5.418;2022-10-16T04:19:10;15.60;73.10
32296;DHT22;18781;51.550;5.418;2022-10-16T04:21:36;15.50;73.10
32296;DHT22;18781;51.550;5.418;2022-10-16T04:24:01;15.50;73.10
32296;DHT22;18781;51.550;5.418;2022-10-16T04:26:27;15.60;73.20
32296;DHT22;18781;51.550;5.418;2022-10-16T04:28:53;15.50;73.20
32296;DHT22;18781;51.550;5.418;2022-10-16T04:31:19;15.60;73.30
32296;DHT22;18781;51.550;5.418;2022-10-16T04:33:45;15.60;73.30
32296;DHT22;18781;51.550;5.418;2022-10-16T04:36:10;15.60;73.40
32296;DHT22;18781;51.550;5.418;2022-10-16T04:38:36;15.60;73.40
32296;DHT22;18781;51.550;5.418;2022-10-16T04:41:03;15.60;73.40
32296;DHT22;18781;51.550;5.418;2022-10-16T04:43:29;15.60;73.40
32296;DHT22;18781;51.550;5.418;2022-10-16T04:45:54;15.60;73.50
32296;DHT22;18781;51.550;5.418;2022-10-16T04:48:20;15.60;73.40
32296;DHT22;18781;51.550;5.418;2022-10-16T04:50:46;15.60;73.40
32296;DHT22;18781;51.550;5.418;2022-10-16T04:53:12;15.60;73.40
32296;DHT22;18781;51.550;5.418;2022-10-16T04:55:37;15.60;73.50
32296;DHT22;18781;51.550;5.418;2022-10-16T04:58:03;15.60;73.50
32296;DHT22;18781;51.550;5.418;2022-10-16T05:00:29;15.60;73.50
32296;DHT22;18781;51.550;5.418;2022-10-16T05:02:55;15.60;73.50
32296;DHT22;18781;51.550;5.418;2022-10-16T05:05:21;15.60;73.50
32296;DHT22;18781;51.550;5.418;2022-10-16T05:07:47;15.60;73.50
32296;DHT22;18781;51.550;5.418;2022-10-16T05:10:13;15.60;73.50
32296;DHT22;18781;51.550;5.418;2022-10-16T05:12:38;15.60;73.50
32296;DHT22;18781;51.550;5.418;2022-10-16T05:15:04;15.60;73.50
32296;DHT22;18781;51.550;5.418;2022-10-16T05:17:30;15.60;73.50
32296;DHT22;18781;51.550;5.418;2022-10-16T05:19:56;15.60;73.50
32296;DHT22;18781;51.550;5.418;2022-10-16T05:22:22;15.60;73.50
32296;DHT22;18781;51.550;5.418;2022-10-16T05:24:47;15.60;73.50
32296;DHT22;18781;51.550;5.418;2022-10-16T05:27:13;15.60;73.60
32296;DHT22;18781;51.550;5.418;2022-10-16T05:29:45;15.60;73.50
32296;DHT22;18781;51.550;5.418;2022-10-16T05:32:12;15.60;73.60
32296;DHT22;18781;51.550;5.418;2022-10-16T05:34:38;15.60;73.60
32296;DHT22;18781;51.550;5.418;2022-10-16T05:37:04;15.60;73.70
32296;DHT22;18781;51.550;5.418;2022-10-16T05:39:30;15.60;73.70
32296;DHT22;18781;51.550;5.418;2022-10-16T05:41:55;15.50;73.70
32296;DHT22;18781;51.550;5.418;2022-10-16T05:44:21;15.50;73.60
32296;DHT22;18781;51.550;5.418;2022-10-16T05:46:47;15.50;73.60
32296;DHT22;18781;51.550;5.418;2022-10-16T05:49:12;15.50;73.70
32296;DHT22;18781;51.550;5.418;2022-10-16T05:51:38;15.50;73.70
32296;DHT22;18781;51.550;5.418;2022-10-16T05:54:03;15.50;73.70
32296;DHT22;18781;51.550;5.418;2022-10-16T05:56:29;15.50;73.70
32296;DHT22;18781;51.550;5.418;2022-10-16T05:58:54;15.50;73.80
32296;DHT22;18781;51.550;5.418;2022-10-16T06:01:20;15.50;73.70
32296;DHT22;18781;51.550;5.418;2022-10-16T06:03:50;15.50;73.70
32296;DHT22;18781;51.550;5.418;2022-10-16T06:06:21;15.50;73.70
32296;DHT22;18781;51.550;5.418;2022-10-16T06:08:48;15.50;73.90
32296;DHT22;18781;51.550;5.418;2022-10-16T06:11:19;15.50;73.80
32296;DHT22;18781;51.550;5.418;2022-10-16T06:13:45;15.50;74.40
32296;DHT22;18781;51.550;5.418;2022-10-16T06:16:11;15.50;73.80
32296;DHT22;18781;51.550;5.418;2022-10-16T06:18:38;15.50;73.90
32296;DHT22;18781;51.550;5.418;2022-10-16T06:21:09;15.50;73.90
32296;DHT22;18781;51.550;5.418;2022-10-16T06:23:35;15.50;74.00
32296;DHT22;18781;51.550;5.418;2022-10-16T06:26:11;15.50;73.90
32296;DHT22;18781;51.550;5.418;2022-10-16T06:28:38;15.50;74.30
32296;DHT22;18781;51.550;5.418;2022-10-16T06:31:05;15.50;74.00
32296;DHT22;18781;51.550;5.418;2022-10-16T06:33:32;15.50;74.00
32296;DHT22;18781;51.550;5.418;2022-10-16T06:36:05;15.50;74.00
32296;DHT22;18781;51.550;5.418;2022-10-16T06:38:32;15.50;74.30
32296;DHT22;18781;51.550;5.418;2022-10-16T06:40:58;15.50;74.10
32296;DHT22;18781;51.550;5.418;2022-10-16T06:43:24;15.50;74.10
32296;DHT22;18781;51.550;5.418;2022-10-16T06:45:56;15.40;74.10
32296;DHT22;18781;51.550;5.418;2022-10-16T06:48:23;15.50;74.50
32296;DHT22;18781;51.550;5.418;2022-10-16T06:53:29;15.40;74.60
32296;DHT22;18781;51.550;5.418;2022-10-16T06:55:55;15.50;74.50
32296;DHT22;18781;51.550;5.418;2022-10-16T06:58:21;15.50;74.50
32296;DHT22;18781;51.550;5.418;2022-10-16T07:00:47;15.50;74.60
32296;DHT22;18781;51.550;5.418;2022-10-16T07:03:13;15.50;74.70
32296;DHT22;18781;51.550;5.418;2022-10-16T07:05:40;15.50;74.80
32296;DHT22;18781;51.550;5.418;2022-10-16T07:08:06;15.50;74.90
32296;DHT22;18781;51.550;5.418;2022-10-16T07:10:32;15.50;74.90
32296;DHT22;18781;51.550;5.418;2022-10-16T07:12:58;15.60;75.10
32296;DHT22;18781;51.550;5.418;2022-10-16T07:15:25;15.60;75.10
32296;DHT22;18781;51.550;5.418;2022-10-16T07:17:51;15.60;75.10
32296;DHT22;18781;51.550;5.418;2022-10-16T07:20:16;15.60;75.20
32296;DHT22;18781;51.550;5.418;2022-10-16T07:22:42;15.70;75.20
32296;DHT22;18781;51.550;5.418;2022-10-16T07:25:08;15.70;75.20
32296;DHT22;18781;51.550;5.418;2022-10-16T07:27:33;15.80;75.40
32296;DHT22;18781;51.550;5.418;2022-10-16T07:29:59;15.80;75.30
32296;DHT22;18781;51.550;5.418;2022-10-16T07:32:25;15.80;75.30
32296;DHT22;18781;51.550;5.418;2022-10-16T07:34:51;15.90;75.40
32296;DHT22;18781;51.550;5.418;2022-10-16T07:37:17;15.90;75.40
32296;DHT22;18781;51.550;5.418;2022-10-16T07:39:43;16.00;75.40
32296;DHT22;18781;51.550;5.418;2022-10-16T07:42:08;16.00;75.40
32296;DHT22;18781;51.550;5.418;2022-10-16T07:44:34;16.00;75.30
32296;DHT22;18781;51.550;5.418;2022-10-16T07:46:59;16.10;75.40
32296;DHT22;18781;51.550;5.418;2022-10-16T07:49:25;16.10;75.40
32296;DHT22;18781;51.550;5.418;2022-10-16T07:51:51;16.20;75.40
32296;DHT22;18781;51.550;5.418;2022-10-16T07:54:16;16.20;75.30
32296;DHT22;18781;51.550;5.418;2022-10-16T07:56:42;16.30;75.40
32296;DHT22;18781;51.550;5.418;2022-10-16T07:59:08;16.30;75.40
32296;DHT22;18781;51.550;5.418;2022-10-16T08:01:33;16.40;75.40
32296;DHT22;18781;51.550;5.418;2022-10-16T08:03:59;16.40;75.20
32296;DHT22;18781;51.550;5.418;2022-10-16T08:06:25;16.50;75.10
32296;DHT22;18781;51.550;5.418;2022-10-16T08:08:50;16.50;75.00
32296;DHT22;18781;51.550;5.418;2022-10-16T08:11:16;16.60;74.90
32296;DHT22;18781;51.550;5.418;2022-10-16T08:13:42;16.60;74.90
32296;DHT22;18781;51.550;5.418;2022-10-16T08:16:08;16.70;74.80
32296;DHT22;18781;51.550;5.418;2022-10-16T08:18:36;16.70;74.80
32296;DHT22;18781;51.550;5.418;2022-10-16T08:21:02;16.80;74.70
32296;DHT22;18781;51.550;5.418;2022-10-16T08:23:28;16.80;74.70
32296;DHT22;18781;51.550;5.418;2022-10-16T08:25:55;16.80;74.60
32296;DHT22;18781;51.550;5.418;2022-10-16T08:28:21;16.90;74.80
32296;DHT22;18781;51.550;5.418;2022-10-16T08:30:47;16.90;74.50
32296;DHT22;18781;51.550;5.418;2022-10-16T08:33:13;17.00;74.50
32296;DHT22;18781;51.550;5.418;2022-10-16T08:35:39;17.00;74.40
32296;DHT22;18781;51.550;5.418;2022-10-16T08:38:06;17.00;74.40
32296;DHT22;18781;51.550;5.418;2022-10-16T08:40:33;17.10;74.30
32296;DHT22;18781;51.550;5.418;2022-10-16T08:45:49;17.20;74.10
32296;DHT22;18781;51.550;5.418;2022-10-16T08:51:19;17.30;73.80
32296;DHT22;18781;51.550;5.418;2022-10-16T08:53:55;17.30;73.70
32296;DHT22;18781;51.550;5.418;2022-10-16T08:56:22;17.40;73.40
32296;DHT22;18781;51.550;5.418;2022-10-16T08:58:48;17.40;73.30
32296;DHT22;18781;51.550;5.418;2022-10-16T09:01:16;17.50;73.30
32296;DHT22;18781;51.550;5.418;2022-10-16T09:12:16;17.60;73.30
32296;DHT22;18781;51.550;5.418;2022-10-16T09:20:30;17.80;72.70
32296;DHT22;18781;51.550;5.418;2022-10-16T09:23:10;17.80;72.60
32296;DHT22;18781;51.550;5.418;2022-10-16T09:25:39;17.90;72.10
32296;DHT22;18781;51.550;5.418;2022-10-16T09:28:08;17.90;72.00
32296;DHT22;18781;51.550;5.418;2022-10-16T09:30:35;18.00;72.20
32296;DHT22;18781;51.550;5.418;2022-10-16T09:33:00;18.00;72.30
32296;DHT22;18781;51.550;5.418;2022-10-16T09:35:48;18.10;72.20
32296;DHT22;18781;51.550;5.418;2022-10-16T09:38:40;18.10;71.70
32296;DHT22;18781;51.550;5.418;2022-10-16T09:41:24;18.20;71.90
32296;DHT22;18781;51.550;5.418;2022-10-16T09:43:59;18.20;71.70
32296;DHT22;18781;51.550;5.418;2022-10-16T09:46:30;18.30;71.40
32296;DHT22;18781;51.550;5.418;2022-10-16T09:49:20;18.30;71.40
32296;DHT22;18781;51.550;5.418;2022-10-16T09:51:46;18.40;70.90
32296;DHT22;18781;51.550;5.418;2022-10-16T09:54:18;18.40;71.10
32296;DHT22;18781;51.550;5.418;2022-10-16T09:56:44;18.50;70.80
32296;DHT22;18781;51.550;5.418;2022-10-16T09:59:21;18.50;70.80
32296;DHT22;18781;51.550;5.418;2022-10-16T10:01:53;18.60;70.70
32296;DHT22;18781;51.550;5.418;2022-10-16T10:04:22;18.50;70.50
32296;DHT22;18781;51.550;5.418;2022-10-16T10:06:52;18.60;70.90
32296;DHT22;18781;51.550;5.418;2022-10-16T10:09:26;18.60;70.40
32296;DHT22;18781;51.550;5.418;2022-10-16T10:11:59;18.70;70.00
32296;DHT22;18781;51.550;5.418;2022-10-16T10:17:17;18.80;69.30
32296;DHT22;18781;51.550;5.418;2022-10-16T10:19:57;18.80;69.40
32296;DHT22;18781;51.550;5.418;2022-10-16T10:22:46;18.90;69.70
32296;DHT22;18781;51.550;5.418;2022-10-16T10:30:33;19.00;69.20
32296;DHT22;18781;51.550;5.418;2022-10-16T10:35:45;19.00;68.80
32296;DHT22;18781;51.550;5.418;2022-10-16T10:41:41;19.10;68.70
32296;DHT22;18781;51.550;5.418;2022-10-16T10:44:16;19.10;68.50
32296;DHT22;18781;51.550;5.418;2022-10-16T10:47:23;19.20;67.90
32296;DHT22;18781;51.550;5.418;2022-10-16T10:50:06;19.20;67.80
32296;DHT22;18781;51.550;5.418;2022-10-16T10:52:53;19.30;67.70
32296;DHT22;18781;51.550;5.418;2022-10-16T10:55:40;19.30;67.50
32296;DHT22;18781;51.550;5.418;2022-10-16T10:58:34;19.40;67.30
32296;DHT22;18781;51.550;5.418;2022-10-16T11:01:14;19.40;67.40
32296;DHT22;18781;51.550;5.418;2022-10-16T11:03:59;19.40;66.70
32296;DHT22;18781;51.550;5.418;2022-10-16T11:09:07;19.50;66.20
32296;DHT22;18781;51.550;5.418;2022-10-16T11:11:43;19.60;66.30
32296;DHT22;18781;51.550;5.418;2022-10-16T11:14:20;19.60;68.00
32296;DHT22;18781;51.550;5.418;2022-10-16T11:28:01;19.90;65.40
32296;DHT22;18781;51.550;5.418;2022-10-16T11:30:30;20.00;65.50
32296;DHT22;18781;51.550;5.418;2022-10-16T11:35:42;20.00;65.40
32296;DHT22;18781;51.550;5.418;2022-10-16T11:38:20;20.10;64.50
32296;DHT22;18781;51.550;5.418;2022-10-16T11:40:53;20.20;64.80
32296;DHT22;18781;51.550;5.418;2022-10-16T11:43:37;20.30;65.10
32296;DHT22;18781;51.550;5.418;2022-10-16T11:46:13;20.40;64.60
32296;DHT22;18781;51.550;5.418;2022-10-16T11:48:54;20.40;63.90
32296;DHT22;18781;51.550;5.418;2022-10-16T11:56:38;20.70;63.00
32296;DHT22;18781;51.550;5.418;2022-10-16T12:04:36;20.80;62.20
32296;DHT22;18781;51.550;5.418;2022-10-16T12:07:14;20.80;62.00
32296;DHT22;18781;51.550;5.418;2022-10-16T12:09:41;20.90;61.60
32296;DHT22;18781;51.550;5.418;2022-10-16T12:15:26;20.90;61.60
32296;DHT22;18781;51.550;5.418;2022-10-16T12:17:52;20.90;61.40
32296;DHT22;18781;51.550;5.418;2022-10-16T12:20:25;20.90;61.10
32296;DHT22;18781;51.550;5.418;2022-10-16T12:22:55;21.00;60.70
32296;DHT22;18781;51.550;5.418;2022-10-16T12:28:04;21.00;61.00
32296;DHT22;18781;51.550;5.418;2022-10-16T12:30:33;21.00;60.30
32296;DHT22;18781;51.550;5.418;2022-10-16T12:33:02;21.00;60.70
32296;DHT22;18781;51.550;5.418;2022-10-16T12:35:42;21.00;60.70
32296;DHT22;18781;51.550;5.418;2022-10-16T12:38:20;21.00;60.50
32296;DHT22;18781;51.550;5.418;2022-10-16T12:41:01;21.00;60.10
32296;DHT22;18781;51.550;5.418;2022-10-16T12:46:23;21.10;60.90
32296;DHT22;18781;51.550;5.418;2022-10-16T12:48:50;21.10;60.70
32296;DHT22;18781;51.550;5.418;2022-10-16T12:54:09;21.20;60.10
32296;DHT22;18781;51.550;5.418;2022-10-16T13:02:47;21.30;59.80
32296;DHT22;18781;51.550;5.418;2022-10-16T13:05:34;21.30;59.30
32296;DHT22;18781;51.550;5.418;2022-10-16T13:27:56;21.30;58.80
32296;DHT22;18781;51.550;5.418;2022-10-16T13:30:25;21.30;58.80
32296;DHT22;18781;51.550;5.418;2022-10-16T13:32:55;21.30;58.90
32296;DHT22;18781;51.550;5.418;2022-10-16T13:35:28;21.40;60.10
32296;DHT22;18781;51.550;5.418;2022-10-16T13:38:13;21.40;59.30
32296;DHT22;18781;51.550;5.418;2022-10-16T13:46:12;21.40;59.00
32296;DHT22;18781;51.550;5.418;2022-10-16T13:48:38;21.40;58.70
32296;DHT22;18781;51.550;5.418;2022-10-16T13:51:06;21.40;58.90
32296;DHT22;18781;51.550;5.418;2022-10-16T13:53:36;21.40;58.80
32296;DHT22;18781;51.550;5.418;2022-10-16T13:56:04;21.40;59.10
32296;DHT22;18781;51.550;5.418;2022-10-16T13:58:30;21.40;58.80
32296;DHT22;18781;51.550;5.418;2022-10-16T14:00:58;21.40;59.10
32296;DHT22;18781;51.550;5.418;2022-10-16T14:03:26;21.50;59.10
32296;DHT22;18781;51.550;5.418;2022-10-16T14:05:54;21.50;59.00
32296;DHT22;18781;51.550;5.418;2022-10-16T14:08:25;21.50;58.80
32296;DHT22;18781;51.550;5.418;2022-10-16T14:10:57;21.50;58.40
32296;DHT22;18781;51.550;5.418;2022-10-16T14:13:33;21.50;58.10
32296;DHT22;18781;51.550;5.418;2022-10-16T14:16:06;21.50;58.00
32296;DHT22;18781;51.550;5.418;2022-10-16T14:18:32;21.50;58.40
32296;DHT22;18781;51.550;5.418;2022-10-16T14:21:06;21.50;58.60
32296;DHT22;18781;51.550;5.418;2022-10-16T14:23:39;21.50;58.50
32296;DHT22;18781;51.550;5.418;2022-10-16T14:26:14;21.50;58.50
32296;DHT22;18781;51.550;5.418;2022-10-16T14:28:41;21.50;58.20
32296;DHT22;18781;51.550;5.418;2022-10-16T14:31:31;21.40;58.50
32296;DHT22;18781;51.550;5.418;2022-10-16T14:33:58;21.50;58.50
32296;DHT22;18781;51.550;5.418;2022-10-16T14:36:25;21.40;58.70
32296;DHT22;18781;51.550;5.418;2022-10-16T14:39:01;21.40;58.60
32296;DHT22;18781;51.550;5.418;2022-10-16T14:41:29;21.40;58.60
32296;DHT22;18781;51.550;5.418;2022-10-16T14:44:00;21.40;58.60
32296;DHT22;18781;51.550;5.418;2022-10-16T14:46:35;21.40;58.70
32296;DHT22;18781;51.550;5.418;2022-10-16T14:49:17;21.40;58.60
32296;DHT22;18781;51.550;5.418;2022-10-16T14:51:47;21.40;58.80
32296;DHT22;18781;51.550;5.418;2022-10-16T14:54:15;21.40;59.10
32296;DHT22;18781;51.550;5.418;2022-10-16T14:59:35;21.40;59.00
32296;DHT22;18781;51.550;5.418;2022-10-16T15:02:27;21.40;59.10
32296;DHT22;18781;51.550;5.418;2022-10-16T15:04:53;21.40;59.20
32296;DHT22;18781;51.550;5.418;2022-10-16T15:07:19;21.40;59.00
32296;DHT22;18781;51.550;5.418;2022-10-16T15:09:44;21.40;59.00
32296;DHT22;18781;51.550;5.418;2022-10-16T15:12:10;21.40;59.10
32296;DHT22;18781;51.550;5.418;2022-10-16T15:14:36;21.40;59.10
32296;DHT22;18781;51.550;5.418;2022-10-16T15:17:02;21.40;59.00
32296;DHT22;18781;51.550;5.418;2022-10-16T15:19:28;21.40;59.00
32296;DHT22;18781;51.550;5.418;2022-10-16T15:21:53;21.40;59.00
32296;DHT22;18781;51.550;5.418;2022-10-16T15:24:19;21.40;58.90
32296;DHT22;18781;51.550;5.418;2022-10-16T15:26:44;21.40;59.00
32296;DHT22;18781;51.550;5.418;2022-10-16T15:29:12;21.40;59.00
32296;DHT22;18781;51.550;5.418;2022-10-16T15:31:37;21.40;58.80
32296;DHT22;18781;51.550;5.418;2022-10-16T15:34:03;21.30;58.90
32296;DHT22;18781;51.550;5.418;2022-10-16T15:36:36;21.30;58.90
32296;DHT22;18781;51.550;5.418;2022-10-16T15:39:11;21.30;59.00
32296;DHT22;18781;51.550;5.418;2022-10-16T15:41:37;21.30;59.00
32296;DHT22;18781;51.550;5.418;2022-10-16T15:44:03;21.30;59.10
32296;DHT22;18781;51.550;5.418;2022-10-16T15:46:28;21.30;59.50
32296;DHT22;18781;51.550;5.418;2022-10-16T15:48:57;21.20;59.10
32296;DHT22;18781;51.550;5.418;2022-10-16T15:51:23;21.20;59.10
32296;DHT22;18781;51.550;5.418;2022-10-16T15:53:49;21.20;59.10
32296;DHT22;18781;51.550;5.418;2022-10-16T15:56:17;21.10;59.10
32296;DHT22;18781;51.550;5.418;2022-10-16T15:58:43;21.10;59.20
32296;DHT22;18781;51.550;5.418;2022-10-16T16:01:09;21.10;59.20
32296;DHT22;18781;51.550;5.418;2022-10-16T16:03:36;21.10;59.20
32296;DHT22;18781;51.550;5.418;2022-10-16T16:06:05;21.00;59.30
32296;DHT22;18781;51.550;5.418;2022-10-16T16:08:31;21.00;59.30
32296;DHT22;18781;51.550;5.418;2022-10-16T16:11:11;21.00;59.50
32296;DHT22;18781;51.550;5.418;2022-10-16T16:13:38;21.00;59.40
32296;DHT22;18781;51.550;5.418;2022-10-16T16:16:12;20.90;59.40
32296;DHT22;18781;51.550;5.418;2022-10-16T16:18:38;20.90;59.70
32296;DHT22;18781;51.550;5.418;2022-10-16T16:21:04;20.80;59.80
32296;DHT22;18781;51.550;5.418;2022-10-16T16:23:30;20.80;59.90
32296;DHT22;18781;51.550;5.418;2022-10-16T16:28:28;20.70;60.40
32296;DHT22;18781;51.550;5.418;2022-10-16T16:30:55;20.70;60.50
32296;DHT22;18781;51.550;5.418;2022-10-16T16:33:20;20.60;60.70
32296;DHT22;18781;51.550;5.418;2022-10-16T16:35:46;20.60;60.80
32296;DHT22;18781;51.550;5.418;2022-10-16T16:38:11;20.60;61.00
32296;DHT22;18781;51.550;5.418;2022-10-16T16:40:37;20.50;61.00
32296;DHT22;18781;51.550;5.418;2022-10-16T16:43:03;20.50;61.20
32296;DHT22;18781;51.550;5.418;2022-10-16T16:45:29;20.40;61.20
32296;DHT22;18781;51.550;5.418;2022-10-16T16:47:55;20.40;61.30
32296;DHT22;18781;51.550;5.418;2022-10-16T16:50:20;20.40;61.60
32296;DHT22;18781;51.550;5.418;2022-10-16T16:52:46;20.30;61.80
32296;DHT22;18781;51.550;5.418;2022-10-16T16:55:11;20.30;61.80
32296;DHT22;18781;51.550;5.418;2022-10-16T16:57:37;20.30;61.90
32296;DHT22;18781;51.550;5.418;2022-10-16T17:00:04;20.20;61.90
32296;DHT22;18781;51.550;5.418;2022-10-16T17:02:29;20.20;62.10
32296;DHT22;18781;51.550;5.418;2022-10-16T17:04:55;20.10;62.10
32296;DHT22;18781;51.550;5.418;2022-10-16T17:07:22;20.10;62.20
32296;DHT22;18781;51.550;5.418;2022-10-16T17:09:50;20.10;62.30
32296;DHT22;18781;51.550;5.418;2022-10-16T17:12:16;20.10;62.30
32296;DHT22;18781;51.550;5.418;2022-10-16T17:14:41;20.00;62.50
32296;DHT22;18781;51.550;5.418;2022-10-16T17:17:07;20.00;62.60
32296;DHT22;18781;51.550;5.418;2022-10-16T17:19:32;20.00;62.60
32296;DHT22;18781;51.550;5.418;2022-10-16T17:21:58;20.00;62.70
32296;DHT22;18781;51.550;5.418;2022-10-16T17:24:23;19.90;62.60
32296;DHT22;18781;51.550;5.418;2022-10-16T17:26:49;19.90;62.70
32296;DHT22;18781;51.550;5.418;2022-10-16T17:29:16;19.90;62.80
32296;DHT22;18781;51.550;5.418;2022-10-16T17:31:42;19.80;62.90
32296;DHT22;18781;51.550;5.418;2022-10-16T17:34:09;19.80;62.90
32296;DHT22;18781;51.550;5.418;2022-10-16T17:36:38;19.80;63.10
32296;DHT22;18781;51.550;5.418;2022-10-16T17:39:06;19.70;63.60
32296;DHT22;18781;51.550;5.418;2022-10-16T17:41:33;19.70;63.20